Washington, MO

3:54 PM CST on December 12, 2017 (GMT -0600)
Washington

Weather History for KFYG - February, 2012

Change the Weather History Date:

Tuesday, February 28, 2012

  Actual Average (KSUS) Record (KSUS)
Temperature  
Mean Temperature 48 °F -  
Max Temperature 64 °F 45 °F 75 °F (2017)
Min Temperature 32 °F 27 °F 14 °F (2002)
Degree Days  
Heating Degree Days 17    
Moisture  
Dew Point 33 °F    
Average Humidity 55    
Maximum Humidity 88    
Minimum Humidity 38    
Precipitation  
Precipitation 0.00 in - - ()
Sea Level Pressure  
Sea Level Pressure 30.12 in    
Wind  
Wind Speed 8 mph ()    
Max Wind Speed 20 mph    
Max Gust Speed 26 mph    
Visibility 10.0 miles    
Events      
Averages and records for this station are not official NWS values.
T = Trace of Precipitation, MM = Missing Value Source: Averaged Metar Reports

Daily Weather History Graph

Daily Weather History Graph

Search for Another Location

Airport or City:

Trip Planner

Search our weather history database for the weather conditions in past years. The results will help you decide how hot, cold, wet, or windy it might be!

Date:

Astronomy

Feb. 28, 2012 Rise Set
Actual Time 6:38 AM CST 5:55 PM CST
Civil Twilight 6:11 AM CST 6:22 PM CST
Nautical Twilight 5:40 AM CST 6:52 PM CST
Astronomical Twilight 5:10 AM CST 7:23 PM CST
Moon 9:51 AM CST (2/28) No Moon Set
Length of Visible Light 12h 10m
Length of Day
11h 17m
Waxing Crescent, 38% of the Moon is Illuminated
Feb 28
Waxing Crescent
Feb 29
First Quarter
Mar 8
Full
Mar 14
Last Quarter
Mar 22
New

Hourly Weather History & Observations

Time (CST) Temp. Windchill Dew Point Humidity Pressure Visibility Wind Dir Wind Speed Gust Speed Precip Events Conditions
12:15 AM 41.0 °F 37.1 °F 21.2 °F 45% 30.40 in 10.0 mi East 5.8 mph - N/A   Clear
12:35 AM 41.0 °F 39.0 °F 19.4 °F 42% 30.40 in 10.0 mi East 3.5 mph - N/A   Mostly Cloudy
12:55 AM 41.0 °F 37.1 °F 19.4 °F 42% 30.40 in 10.0 mi East 5.8 mph - N/A   Mostly Cloudy
1:15 AM 41.0 °F 36.4 °F 19.4 °F 42% 30.39 in 10.0 mi ESE 6.9 mph - N/A   Clear
1:35 AM 39.2 °F 35.9 °F 21.2 °F 49% 30.40 in 10.0 mi SE 4.6 mph - N/A   Partly Cloudy
1:55 AM 39.2 °F 35.0 °F 21.2 °F 49% 30.39 in 10.0 mi ESE 5.8 mph - N/A   Mostly Cloudy
2:15 AM 39.2 °F 37.0 °F 21.2 °F 49% 30.37 in 10.0 mi ESE 3.5 mph - N/A   Overcast
2:35 AM 39.2 °F 37.0 °F 21.2 °F 49% 30.37 in 10.0 mi SE 3.5 mph - N/A   Overcast
2:55 AM 39.2 °F 35.9 °F 21.2 °F 49% 30.37 in 10.0 mi SE 4.6 mph - N/A   Mostly Cloudy
3:15 AM 39.2 °F 37.0 °F 23.0 °F 52% 30.37 in 10.0 mi SE 3.5 mph - N/A   Overcast
3:35 AM 33.8 °F 30.8 °F 24.8 °F 70% 30.37 in 10.0 mi SE 3.5 mph - N/A   Mostly Cloudy
3:55 AM 32.0 °F - 24.8 °F 75% 30.36 in 10.0 mi Calm Calm - N/A   Scattered Clouds
4:15 AM 33.8 °F 30.8 °F 24.8 °F 70% 30.36 in 10.0 mi East 3.5 mph - N/A   Mostly Cloudy
4:35 AM 37.4 °F 32.8 °F 23.0 °F 56% 30.36 in 10.0 mi ESE 5.8 mph - N/A   Overcast
4:55 AM 37.4 °F 32.1 °F 23.0 °F 56% 30.35 in 10.0 mi ESE 6.9 mph - N/A   Mostly Cloudy
5:15 AM 37.4 °F 33.8 °F 23.0 °F 56% 30.35 in 10.0 mi ESE 4.6 mph - N/A   Mostly Cloudy
5:35 AM 35.6 °F 31.7 °F 23.0 °F 60% 30.35 in 10.0 mi SE 4.6 mph - N/A   Overcast
5:55 AM 33.8 °F 29.6 °F 24.8 °F 70% 30.34 in 10.0 mi SE 4.6 mph - N/A   Overcast
6:15 AM 35.6 °F 32.8 °F 23.0 °F 60% 30.33 in 10.0 mi ESE 3.5 mph - N/A   Mostly Cloudy
6:35 AM 35.6 °F 32.8 °F 23.0 °F 60% 30.33 in 10.0 mi South 3.5 mph - N/A   Mostly Cloudy
6:55 AM 35.6 °F 30.7 °F 24.8 °F 65% 30.32 in 10.0 mi SE 5.8 mph - N/A   Mostly Cloudy
7:15 AM 37.4 °F 33.8 °F 23.0 °F 56% 30.31 in 10.0 mi ESE 4.6 mph - N/A   Overcast
7:35 AM 37.4 °F 32.1 °F 24.8 °F 60% 30.31 in 10.0 mi SE 6.9 mph - N/A   Overcast
7:55 AM 39.2 °F 34.2 °F 24.8 °F 56% 30.30 in 10.0 mi ESE 6.9 mph - N/A   Overcast
8:15 AM 39.2 °F 33.6 °F 24.8 °F 56% 30.29 in 10.0 mi ESE 8.1 mph - N/A   Overcast
8:35 AM 41.0 °F 35.8 °F 24.8 °F 53% 30.28 in 10.0 mi ESE 8.1 mph - N/A   Overcast
8:55 AM 41.0 °F 35.2 °F 24.8 °F 53% 30.28 in 10.0 mi SE 9.2 mph - N/A   Overcast
9:15 AM 41.0 °F 35.2 °F 24.8 °F 53% 30.27 in 10.0 mi SE 9.2 mph - N/A   Overcast
9:35 AM 42.8 °F 37.0 °F 24.8 °F 49% 30.26 in 10.0 mi SE 10.4 mph - N/A   Overcast
9:55 AM 44.6 °F 39.2 °F 24.8 °F 46% 30.25 in 10.0 mi SE 10.4 mph - N/A   Overcast
10:15 AM 44.6 °F 39.7 °F 24.8 °F 46% 30.24 in 10.0 mi SE 9.2 mph - N/A   Overcast
10:35 AM 46.4 °F 41.1 °F 24.8 °F 43% 30.24 in 10.0 mi SE 11.5 mph - N/A   Overcast
10:55 AM 46.4 °F 41.5 °F 24.8 °F 43% 30.23 in 10.0 mi SE 10.4 mph - N/A   Overcast
11:15 AM 46.4 °F 40.7 °F 26.6 °F 46% 30.21 in 10.0 mi SE 12.7 mph - N/A   Overcast
11:35 AM 48.2 °F - 26.6 °F 43% 30.20 in 10.0 mi ESE 10.4 mph - N/A   Overcast
11:55 AM 48.2 °F - 26.6 °F 43% 30.19 in 10.0 mi SE 8.1 mph - N/A   Overcast
12:15 PM 53.6 °F - 28.4 °F 38% 30.16 in 10.0 mi SE 8.1 mph - N/A   Mostly Cloudy
12:35 PM 53.6 °F - 30.2 °F 41% 30.15 in 10.0 mi SE 10.4 mph - N/A   Scattered Clouds
12:55 PM 55.4 °F - 32.0 °F 41% 30.13 in 10.0 mi SE 9.2 mph - N/A   Mostly Cloudy
1:15 PM 55.4 °F - 32.0 °F 41% 30.10 in 10.0 mi SE 12.7 mph - N/A   Overcast
1:35 PM 57.2 °F - 32.0 °F 38% 30.08 in 10.0 mi ESE 10.4 mph - N/A   Scattered Clouds
1:55 PM 57.2 °F - 32.0 °F 38% 30.06 in 10.0 mi SE 10.4 mph - N/A   Scattered Clouds
2:15 PM 59.0 °F - 33.8 °F 39% 30.05 in 10.0 mi SE 12.7 mph - N/A   Partly Cloudy
2:35 PM 59.0 °F - 33.8 °F 39% 30.03 in 10.0 mi ESE 8.1 mph - N/A   Clear
2:55 PM 60.8 °F - 35.6 °F 39% 30.02 in 10.0 mi ESE 9.2 mph - N/A   Mostly Cloudy
3:15 PM 60.8 °F - 35.6 °F 39% 30.00 in 10.0 mi ESE 11.5 mph - N/A   Overcast
3:35 PM 60.8 °F - 35.6 °F 39% 29.97 in 10.0 mi ESE 12.7 mph - N/A   Overcast
3:55 PM 64.4 °F - 39.2 °F 40% 29.94 in 10.0 mi ESE 17.3 mph 21.9 mph N/A   Overcast
4:15 PM 62.6 °F - 39.2 °F 42% 29.94 in 10.0 mi ESE 13.8 mph - N/A   Overcast
4:35 PM 62.6 °F - 39.2 °F 42% 29.94 in 10.0 mi ESE 12.7 mph - N/A   Overcast
4:55 PM 62.6 °F - 39.2 °F 42% 29.92 in 10.0 mi ESE 12.7 mph - N/A   Overcast
5:15 PM 60.8 °F - 41.0 °F 48% 29.92 in 10.0 mi SE 11.5 mph - N/A   Mostly Cloudy
5:35 PM 60.8 °F - 41.0 °F 48% 29.91 in 10.0 mi SE 11.5 mph - N/A   Mostly Cloudy
5:55 PM 60.8 °F - 44.6 °F 55% 29.91 in 10.0 mi SE 11.5 mph - N/A   Overcast
6:15 PM 60.8 °F - 44.6 °F 55% 29.89 in 10.0 mi SE 11.5 mph - N/A   Overcast
6:35 PM 62.6 °F - 46.4 °F 55% 29.88 in 10.0 mi SE 12.7 mph - N/A   Overcast
6:55 PM 60.8 °F - 48.2 °F 63% 29.85 in 10.0 mi SE 17.3 mph 21.9 mph N/A   Overcast
7:15 PM 60.8 °F - 48.2 °F 63% 29.86 in 10.0 mi SSE 12.7 mph 18.4 mph N/A   Overcast
7:35 PM 60.8 °F - 48.2 °F 63% 29.84 in 10.0 mi SSE 16.1 mph 21.9 mph N/A   Overcast
7:55 PM 62.6 °F - 48.2 °F 59% 29.83 in 10.0 mi SSE 17.3 mph 23.0 mph N/A   Overcast
8:15 PM 60.8 °F - 50.0 °F 68% 29.82 in 10.0 mi SSE 19.6 mph 26.5 mph N/A   Overcast
8:35 PM 60.8 °F - 50.0 °F 68% 29.81 in 10.0 mi SSE 16.1 mph - N/A   Overcast
9:15 PM 59.0 °F - 51.8 °F 77% 29.80 in 10.0 mi South 18.4 mph 24.2 mph N/A   Overcast
9:35 PM 59.0 °F - 53.6 °F 82% 29.79 in 10.0 mi SSE 16.1 mph - N/A   Overcast
9:55 PM 59.0 °F - 53.6 °F 82% 29.76 in 10.0 mi SSE 18.4 mph - N/A   Overcast
10:15 PM 59.0 °F - 55.4 °F 88% 29.75 in 10.0 mi SSE 16.1 mph - N/A   Overcast
10:35 PM 59.0 °F - 55.4 °F 88% 29.74 in 10.0 mi SSE 15.0 mph - N/A   Overcast
10:55 PM 60.8 °F - 57.2 °F 88% 29.72 in 10.0 mi SSE 16.1 mph 20.7 mph N/A   Overcast
11:15 PM 60.8 °F - 57.2 °F 88% 29.70 in 10.0 mi South 15.0 mph - N/A   Overcast
11:35 PM 62.6 °F - 59.0 °F 88% 29.68 in 10.0 mi South 18.4 mph 25.3 mph N/A   Overcast